Time;durP1;ratioP1;P1;durP2;ratioP2;P2;SDS_P1;SDS_P2;PMS_P1;PMS_P2;Temp;Humidity;BMP_temperature;BMP_pressure;BME280_temperature;BME280_humidity;BME280_pressure;Samples;Min_cycle;Max_cycle;Signal;HPM_P1;HPM_P2
2022/11/01 00:01:44;;;;;;;15.93;8.32;;;;;;;21.15;52.64;100962.78;5094402;28;20043;-71
2022/11/01 00:04:10;;;;;;;12.57;7.28;;;;;;;21.23;52.19;100956.69;5094061;28;20051;-72
2022/11/01 00:06:36;;;;;;;14.50;7.05;;;;;;;21.68;50.59;100958.78;5081947;28;20546;-72
2022/11/01 00:09:02;;;;;;;25.23;7.82;;;;;;;21.56;51.54;100949.41;5073973;28;20064;-71
2022/11/01 00:11:27;;;;;;;18.05;7.55;;;;;;;21.56;51.47;100952.16;5073848;28;20040;-71
2022/11/01 00:13:53;;;;;;;15.95;7.00;;;;;;;21.20;52.24;100956.47;5074442;28;20074;-71
2022/11/01 00:16:19;;;;;;;12.95;7.03;;;;;;;21.19;52.38;100954.84;5073503;28;20423;-71
2022/11/01 00:18:45;;;;;;;17.98;7.07;;;;;;;21.39;51.67;100958.13;5073842;28;20028;-71
2022/11/01 00:21:11;;;;;;;16.70;8.00;;;;;;;21.53;51.50;100947.25;5073764;28;20024;-72
2022/11/01 00:23:38;;;;;;;19.35;7.10;;;;;;;21.45;52.06;100943.28;5073303;28;20039;-71
2022/11/01 00:26:04;;;;;;;18.65;7.07;;;;;;;21.41;52.20;100938.69;5073916;28;20060;-71
2022/11/01 00:28:30;;;;;;;21.33;7.90;;;;;;;21.61;51.46;100946.59;5073556;28;20040;-70
2022/11/01 00:30:57;;;;;;;14.50;7.22;;;;;;;21.09;53.36;100944.84;5078404;28;20032;-71
2022/11/01 00:33:23;;;;;;;15.15;6.53;;;;;;;21.46;52.58;100942.16;5093866;28;20106;-70
2022/11/01 00:35:48;;;;;;;11.05;7.07;;;;;;;21.37;52.12;100930.25;5094019;28;20422;-71
2022/11/01 00:38:18;;;;;;;17.20;6.43;;;;;;;21.55;52.28;100932.19;5094167;28;20463;-71
2022/11/01 00:40:44;;;;;;;16.80;5.95;;;;;;;21.23;52.50;100928.56;5091837;28;20047;-71
2022/11/01 00:43:10;;;;;;;24.08;7.47;;;;;;;21.47;52.29;100921.09;5093623;28;20391;-71
2022/11/01 00:45:36;;;;;;;14.40;5.60;;;;;;;21.56;52.10;100922.06;5091821;28;20090;-72
2022/11/01 00:48:02;;;;;;;11.82;5.80;;;;;;;21.58;51.62;100917.13;5093467;28;20028;-71
2022/11/01 00:50:28;;;;;;;15.23;5.10;;;;;;;21.87;51.33;100919.72;5083131;28;20074;-70
2022/11/01 00:52:53;;;;;;;17.55;5.47;;;;;;;21.69;52.02;100916.66;5073542;28;20024;-71
2022/11/01 00:55:19;;;;;;;12.27;5.95;;;;;;;21.73;51.88;100912.22;5084177;28;20036;-71
2022/11/01 00:57:44;;;;;;;17.70;6.03;;;;;;;21.76;51.46;100895.22;5093484;28;20398;-72
2022/11/01 01:00:11;;;;;;;23.83;6.75;;;;;;;21.83;51.68;100905.81;5092909;28;20059;-71
2022/11/01 01:02:37;;;;;;;23.25;5.57;;;;;;;21.99;51.24;100889.97;5092996;28;20093;-71
2022/11/01 01:05:03;;;;;;;16.92;6.07;;;;;;;21.84;51.52;100888.28;5093200;28;20040;-71
2022/11/01 01:07:29;;;;;;;14.45;5.75;;;;;;;21.86;51.96;100882.53;5092853;28;20043;-71
2022/11/01 01:09:54;;;;;;;17.73;6.18;;;;;;;21.65;52.12;100882.81;5092852;28;20040;-71
2022/11/01 01:12:20;;;;;;;13.43;6.10;;;;;;;21.86;51.64;100883.31;5093114;28;20036;-70
2022/11/01 01:14:46;;;;;;;19.17;6.10;;;;;;;21.72;52.38;100880.50;5093107;28;20099;-71
2022/11/01 01:17:11;;;;;;;14.38;6.28;;;;;;;21.56;53.04;100883.78;5093015;28;20036;-69
2022/11/01 01:19:37;;;;;;;12.90;5.00;;;;;;;21.74;52.63;100874.72;5092836;28;20032;-71
2022/11/01 01:22:02;;;;;;;12.55;5.60;;;;;;;21.34;53.86;100872.63;5092755;28;20043;-69
2022/11/01 01:24:28;;;;;;;11.32;6.05;;;;;;;21.53;52.55;100879.72;5087309;28;20075;-70
2022/11/01 01:26:53;;;;;;;15.95;5.93;;;;;;;21.39;53.35;100870.63;5072519;28;20052;-71
2022/11/01 01:29:18;;;;;;;15.65;5.72;;;;;;;21.62;53.66;100866.97;5072767;28;20473;-70
2022/11/01 01:31:44;;;;;;;15.52;5.93;;;;;;;21.80;53.03;100868.06;5072166;28;20047;-71
2022/11/01 01:34:09;;;;;;;18.48;6.47;;;;;;;21.96;53.35;100865.91;5072471;28;20040;-73
2022/11/01 01:36:35;;;;;;;18.10;7.15;;;;;;;21.73;55.07;100862.16;5088668;28;20040;-72
2022/11/01 01:39:01;;;;;;;14.65;6.93;;;;;;;21.36;56.03;100854.81;5091016;28;20039;-75
2022/11/01 01:44:51;;;;;;;16.85;7.07;;;;;;;21.47;55.43;100855.47;5093254;28;20553;-72
2022/11/01 01:47:27;;;;;;;16.20;6.38;;;;;;;21.67;55.58;100858.72;5092781;28;20040;-72
2022/11/01 01:50:04;;;;;;;12.27;6.55;;;;;;;21.29;56.76;100843.44;5087134;28;20044;-72
2022/11/01 01:52:34;;;;;;;17.20;6.35;;;;;;;21.74;55.28;100845.44;5072209;28;20036;-72
2022/11/01 01:55:05;;;;;;;22.80;6.85;;;;;;;21.27;56.95;100845.66;5082047;28;20032;-72
2022/11/01 01:57:31;;;;;;;18.83;6.78;;;;;;;21.35;56.95;100841.44;5092902;28;20036;-71
2022/11/01 01:59:56;;;;;;;15.40;7.28;;;;;;;21.52;56.28;100831.59;5092821;28;20035;-72
2022/11/01 02:02:22;;;;;;;15.00;6.32;;;;;;;21.70;56.32;100830.75;5092451;28;20119;-72
2022/11/01 02:04:55;;;;;;;17.67;7.30;;;;;;;21.75;56.31;100829.84;5092039;28;20076;-71
2022/11/01 02:07:22;;;;;;;15.63;5.88;;;;;;;21.75;55.61;100838.88;5090863;28;20139;-72
2022/11/01 02:09:47;;;;;;;19.50;7.07;;;;;;;21.72;55.87;100825.78;5092208;28;20478;-70
2022/11/01 02:12:13;;;;;;;17.23;7.72;;;;;;;21.55;55.76;100825.53;5092214;28;20032;-71
2022/11/01 02:14:41;;;;;;;12.85;6.25;;;;;;;21.18;57.01;100817.38;5092343;28;20035;-72
2022/11/01 02:17:28;;;;;;;11.48;7.18;;;;;;;21.03;57.59;100817.56;5093118;28;20069;-72
2022/11/01 02:20:07;;;;;;;11.43;6.75;;;;;;;21.22;57.33;100815.66;5092504;28;20055;-71
2022/11/01 02:22:44;;;;;;;13.57;6.70;;;;;;;21.69;55.51;100814.63;5072187;28;20044;-71
2022/11/01 02:25:47;;;;;;;20.08;7.45;;;;;;;21.56;55.47;100805.25;5072073;28;20132;-72
2022/11/01 02:28:40;;;;;;;19.52;7.70;;;;;;;21.63;55.58;100802.16;5071846;28;20140;-72
2022/11/01 02:31:43;;;;;;;15.35;6.13;;;;;;;21.14;57.23;100807.31;5073136;28;20087;-71
2022/11/01 02:34:27;;;;;;;15.63;6.55;;;;;;;21.44;56.41;100809.59;5071805;28;20045;-72
2022/11/01 02:37:09;;;;;;;17.02;6.43;;;;;;;21.23;57.32;100806.34;5071798;28;20040;-71
2022/11/01 02:39:41;;;;;;;19.02;7.63;;;;;;;21.67;56.08;100812.22;5076250;28;20043;-71
2022/11/01 02:42:14;;;;;;;14.35;7.13;;;;;;;21.44;56.70;100804.13;5092174;28;20036;-71
2022/11/01 02:44:49;;;;;;;17.30;7.20;;;;;;;21.24;57.44;100804.44;5091991;28;20036;-71
2022/11/01 02:47:15;;;;;;;17.48;6.43;;;;;;;21.14;58.04;100810.03;5091133;28;20491;-71
2022/11/01 02:49:45;;;;;;;17.38;6.53;;;;;;;21.34;57.50;100813.31;5091797;28;20086;-70
2022/11/01 02:52:14;;;;;;;11.90;5.60;;;;;;;21.09;57.77;100802.72;5075578;28;20115;-70
2022/11/01 02:54:48;;;;;;;11.60;6.15;;;;;;;21.35;57.31;100806.72;5083163;28;20039;-72
2022/11/01 02:57:31;;;;;;;11.63;6.45;;;;;;;21.07;58.28;100802.22;5095637;28;20047;-72
2022/11/01 03:00:03;;;;;;;11.80;6.55;;;;;;;21.03;58.65;100803.13;5094428;28;20042;-72
2022/11/01 03:02:40;;;;;;;12.85;5.50;;;;;;;21.02;58.91;100798.75;5095879;28;20111;-72
2022/11/01 03:05:43;;;;;;;10.18;6.15;;;;;;;20.68;59.76;100804.34;5095871;28;20127;-71
2022/11/01 03:08:14;;;;;;;11.85;6.05;;;;;;;21.31;57.63;100815.78;5075434;28;20060;-72
2022/11/01 03:11:13;;;;;;;12.27;6.38;;;;;;;20.82;59.27;100814.28;5075116;28;20040;-71
2022/11/01 03:14:20;;;;;;;13.02;6.43;;;;;;;20.82;59.55;100808.00;5075118;28;20040;-72
2022/11/01 03:17:17;;;;;;;14.25;6.60;;;;;;;20.78;60.13;100798.75;5012140;28;20104;-71
2022/11/01 03:19:49;;;;;;;13.75;5.85;;;;;;;20.61;60.71;100812.94;5012687;28;20079;-71
2022/11/01 03:22:27;;;;;;;15.48;6.25;;;;;;;21.36;58.03;100802.06;5012398;28;20053;-71
2022/11/01 03:25:04;;;;;;;17.15;6.15;;;;;;;21.27;58.71;100796.44;5012474;28;20129;-72
2022/11/01 03:27:35;;;;;;;11.40;6.32;;;;;;;21.24;59.37;100805.25;5015347;28;20037;-71
2022/11/01 03:30:12;;;;;;;14.32;5.93;;;;;;;20.75;60.28;100796.63;5032134;28;20044;-71
2022/11/01 03:32:52;;;;;;;16.25;5.85;;;;;;;21.40;57.84;100792.97;5032176;28;20107;-71
2022/11/01 03:35:25;;;;;;;12.80;5.95;;;;;;;20.61;61.04;100799.28;5032494;28;20044;-71
2022/11/01 03:37:54;;;;;;;13.68;6.28;;;;;;;21.06;59.33;100803.31;5032223;28;20045;-71
2022/11/01 03:40:23;;;;;;;18.05;6.10;;;;;;;21.33;58.85;100808.09;5031578;28;20041;-70
2022/11/01 03:42:50;;;;;;;12.25;6.93;;;;;;;21.09;59.66;100810.91;5032157;28;20452;-71
2022/11/01 03:45:22;;;;;;;16.50;5.22;;;;;;;21.23;59.58;100805.56;5031814;28;20038;-71
2022/11/01 03:47:47;;;;;;;21.23;6.47;;;;;;;21.38;58.75;100816.25;5031825;28;20495;-71
2022/11/01 03:50:18;;;;;;;14.63;4.95;;;;;;;20.96;60.22;100807.00;5031968;28;20030;-71
2022/11/01 03:52:43;;;;;;;;;;;;;;;21.25;59.50;100815.06;5041526;28;20039;-70
2022/11/01 03:55:18;;;;;;;15.35;6.00;;;;;;;21.35;59.90;100817.66;5082679;28;19923;-70
2022/11/01 03:57:47;;;;;;;16.92;5.93;;;;;;;21.40;59.09;100814.84;5074275;28;20132;-71
2022/11/01 04:00:42;;;;;;;9.00;5.55;;;;;;;21.31;59.95;100816.63;5072801;28;20041;-70
2022/11/01 04:03:09;;;;;;;12.70;6.20;;;;;;;21.68;58.29;100823.94;5071950;28;20036;-70
2022/11/01 04:05:36;;;;;;;14.73;7.25;;;;;;;21.36;59.33;100822.03;5077780;28;20032;-71
2022/11/01 04:08:02;;;;;;;15.90;5.85;;;;;;;21.07;60.70;100823.28;5095191;28;20030;-70
2022/11/01 04:10:28;;;;;;;17.98;7.28;;;;;;;21.74;58.35;100826.31;5094262;28;20062;-71
2022/11/01 04:12:54;;;;;;;15.73;5.75;;;;;;;21.77;58.36;100824.91;5094376;28;20032;-71
2022/11/01 04:21:01;;;;;;;8.45;5.93;;;;;;;21.13;60.57;100828.34;5086764;28;20035;-71
2022/11/01 04:23:27;;;;;;;10.88;5.72;;;;;;;21.57;59.23;100825.22;5074033;28;20071;-71
2022/11/01 04:25:52;;;;;;;14.88;6.68;;;;;;;21.86;58.67;100841.47;5094108;28;20039;-71
2022/11/01 04:28:17;;;;;;;14.63;5.43;;;;;;;21.71;59.31;100837.84;5093922;28;20545;-71
2022/11/01 04:30:43;;;;;;;10.63;5.90;;;;;;;22.14;57.44;100838.50;5093825;28;20044;-71
2022/11/01 04:33:09;;;;;;;10.43;5.18;;;;;;;21.93;58.68;100839.16;5093736;28;20032;-71
2022/11/01 04:35:35;;;;;;;10.15;5.40;;;;;;;21.84;58.51;100839.03;5093860;28;20430;-71
2022/11/01 04:38:02;;;;;;;20.88;5.85;;;;;;;21.57;59.46;100849.84;5094413;28;20035;-70
2022/11/01 04:40:27;;;;;;;9.43;5.40;;;;;;;21.71;59.32;100856.19;5093630;28;20051;-70
2022/11/01 04:42:52;;;;;;;12.75;6.45;;;;;;;22.05;58.17;100867.69;5093249;28;20028;-70
2022/11/01 04:45:18;;;;;;;14.75;4.80;;;;;;;21.29;60.28;100875.41;5093613;28;20044;-70
2022/11/01 04:47:51;;;;;;;12.70;5.53;;;;;;;21.30;60.85;100874.31;5093634;28;20474;-70
2022/11/01 04:50:20;;;;;;;13.63;5.53;;;;;;;21.26;61.21;100871.38;5093845;28;20039;-70
2022/11/01 04:52:46;;;;;;;13.35;5.07;;;;;;;21.62;59.06;100888.06;5092051;28;20036;-70
2022/11/01 04:55:11;;;;;;;12.70;5.43;;;;;;;21.95;57.98;100894.41;5093472;28;20039;-71
2022/11/01 04:57:38;;;;;;;11.40;4.20;;;;;;;21.07;60.82;100903.31;5093006;28;20028;-71
2022/11/01 05:00:04;;;;;;;11.25;5.10;;;;;;;21.37;59.88;100897.44;5093137;28;20032;-71
2022/11/01 05:02:30;;;;;;;9.60;3.53;;;;;;;21.74;58.35;100908.38;5093384;28;20529;-69
2022/11/01 05:04:55;;;;;;;16.73;4.43;;;;;;;21.05;58.94;100908.25;5093275;28;20064;-70
2022/11/01 05:07:20;;;;;;;6.53;3.28;;;;;;;21.14;58.63;100922.09;5074305;28;20086;-68
2022/11/01 05:09:46;;;;;;;7.70;3.47;;;;;;;21.58;57.20;100930.78;5081013;28;20046;-70
2022/11/01 05:12:11;;;;;;;8.10;2.83;;;;;;;20.73;56.31;100929.94;5092566;28;20373;-69
2022/11/01 05:14:37;;;;;;;2.60;1.45;;;;;;;20.11;56.27;100925.31;5093257;28;20024;-69
2022/11/01 05:17:02;;;;;;;3.83;1.50;;;;;;;20.11;55.50;100930.78;5093358;28;20483;-69
2022/11/01 05:19:27;;;;;;;4.40;1.70;;;;;;;20.36;54.72;100941.53;5090963;28;20081;-69
2022/11/01 05:21:53;;;;;;;3.70;1.52;;;;;;;20.42;54.30;100940.34;5078984;28;20381;-69
2022/11/01 05:24:19;;;;;;;2.08;1.10;;;;;;;19.99;55.41;100954.88;5072385;28;20033;-70
2022/11/01 05:26:44;;;;;;;4.90;1.25;;;;;;;20.52;53.88;100958.56;5072515;28;20067;-69
2022/11/01 05:29:10;;;;;;;6.13;2.35;;;;;;;20.72;52.96;100969.28;5073243;28;20025;-71
2022/11/01 05:31:36;;;;;;;2.65;0.85;;;;;;;19.85;55.52;100964.84;5072438;28;20025;-71
2022/11/01 05:34:02;;;;;;;8.05;1.20;;;;;;;20.28;54.59;100983.09;5072409;28;20041;-71
2022/11/01 05:36:28;;;;;;;5.90;1.33;;;;;;;20.17;54.36;100991.59;5072397;28;20089;-69
2022/11/01 05:38:57;;;;;;;3.50;1.42;;;;;;;20.43;54.00;100987.56;5072480;28;20614;-71
2022/11/01 05:41:22;;;;;;;2.50;1.35;;;;;;;20.56;53.46;100979.53;5072540;28;20032;-71
2022/11/01 05:43:48;;;;;;;4.88;2.00;;;;;;;20.76;52.98;100983.97;5078387;28;20044;-71
2022/11/01 05:46:13;;;;;;;3.38;1.77;;;;;;;21.03;52.26;100989.72;5082845;28;20032;-72
2022/11/01 05:48:40;;;;;;;2.13;1.10;;;;;;;20.61;53.32;100997.78;5083789;28;20086;-70
2022/11/01 05:51:05;;;;;;;4.53;1.60;;;;;;;21.43;50.72;100993.88;5082313;28;20036;-71
2022/11/01 05:53:31;;;;;;;3.88;1.05;;;;;;;20.45;52.18;101008.03;5080886;28;20491;-71
2022/11/01 05:55:57;;;;;;;5.60;1.02;;;;;;;20.27;52.49;100997.00;5082976;28;20020;-71
2022/11/01 05:58:22;;;;;;;9.02;0.93;;;;;;;20.24;51.89;101009.31;5078702;28;20033;-73
2022/11/01 06:00:48;;;;;;;2.88;1.10;;;;;;;21.02;49.53;101012.69;5079434;28;20476;-71
2022/11/01 06:03:13;;;;;;;2.30;0.93;;;;;;;20.49;50.16;101006.38;5081563;28;20028;-71
2022/11/01 06:05:38;;;;;;;5.43;1.15;;;;;;;19.91;50.78;101026.44;5081507;28;20040;-69
2022/11/01 06:08:05;;;;;;;3.47;0.95;;;;;;;19.34;52.37;101018.00;5082356;28;20028;-72
2022/11/01 06:10:32;;;;;;;1.70;1.00;;;;;;;20.05;50.47;101022.78;5070446;28;20348;-72
2022/11/01 06:12:58;;;;;;;4.85;1.27;;;;;;;19.70;50.57;101014.00;5080523;28;20519;-74
2022/11/01 06:15:23;;;;;;;2.70;0.57;;;;;;;19.20;50.16;101042.28;5090966;28;20082;-68
2022/11/01 06:17:59;;;;;;;2.47;0.80;;;;;;;19.88;48.59;101026.97;5090664;28;20032;-70
2022/11/01 06:20:25;;;;;;;4.32;0.90;;;;;;;19.31;49.86;101022.06;5091289;28;20031;-71
2022/11/01 06:22:51;;;;;;;3.03;1.00;;;;;;;19.25;50.50;101025.88;5090282;28;20044;-70
2022/11/01 06:25:17;;;;;;;5.32;1.60;;;;;;;19.45;49.59;101033.22;5090976;28;20044;-72
2022/11/01 06:27:43;;;;;;;4.07;1.60;;;;;;;19.59;49.15;101032.34;5091005;28;20261;-73
2022/11/01 06:30:09;;;;;;;3.35;0.88;;;;;;;19.62;49.43;101048.13;5090791;28;20043;-73
2022/11/01 06:32:34;;;;;;;1.63;0.47;;;;;;;19.50;50.41;101044.09;5090792;28;20039;-72
2022/11/01 06:34:59;;;;;;;7.07;1.50;;;;;;;19.57;49.75;101030.97;5091181;28;20039;-72
2022/11/01 06:37:25;;;;;;;3.97;0.70;;;;;;;19.81;49.93;101031.94;5090189;28;20040;-72
2022/11/01 06:39:50;;;;;;;7.15;1.05;;;;;;;19.77;49.84;101009.84;5073211;28;20047;-72
2022/11/01 06:42:16;;;;;;;2.80;0.75;;;;;;;20.25;48.85;101021.84;5070610;28;20036;-72
2022/11/01 06:44:41;;;;;;;6.88;1.25;;;;;;;20.19;49.43;101038.53;5070565;28;20041;-73
2022/11/01 06:47:06;;;;;;;4.43;0.90;;;;;;;20.17;49.62;101057.91;5071500;28;20082;-73
2022/11/01 06:49:32;;;;;;;5.93;1.48;;;;;;;19.91;50.24;101057.22;5072883;28;20037;-74
2022/11/01 06:51:57;;;;;;;3.08;0.90;;;;;;;19.36;52.29;101054.75;5074698;28;20047;-73
2022/11/01 06:54:23;;;;;;;5.82;0.98;;;;;;;19.59;52.05;101067.78;5070723;28;20037;-73
2022/11/01 06:56:48;;;;;;;4.72;1.60;;;;;;;20.10;50.03;101069.16;5070439;28;20039;-72
2022/11/01 06:59:15;;;;;;;2.90;1.10;;;;;;;19.04;53.37;101068.72;5073033;28;20113;-74
2022/11/01 07:01:41;;;;;;;5.63;0.80;;;;;;;19.18;53.68;101066.25;5079758;28;20052;-72
2022/11/01 07:04:06;;;;;;;13.40;1.30;;;;;;;18.79;53.68;101087.81;5080221;28;20057;-71
2022/11/01 07:06:32;;;;;;;9.98;0.80;;;;;;;19.50;51.39;101074.09;5081381;28;20044;-73
2022/11/01 07:08:58;;;;;;;9.77;1.83;;;;;;;19.30;51.78;101091.28;5077155;28;20043;-72
2022/11/01 07:11:24;;;;;;;3.33;1.10;;;;;;;19.00;51.80;101085.91;5079700;28;20050;-73
2022/11/01 07:13:49;;;;;;;6.82;1.40;;;;;;;18.99;52.00;101106.84;5083057;28;20029;-73
2022/11/01 07:16:14;;;;;;;7.75;1.38;;;;;;;18.87;51.67;101100.88;5077267;28;20043;-74
2022/11/01 07:18:40;;;;;;;4.82;1.55;;;;;;;18.92;51.49;101116.41;5079719;28;20024;-75
2022/11/01 07:21:05;;;;;;;9.13;1.10;;;;;;;18.78;50.64;101115.31;5085660;28;20039;-72
2022/11/01 07:23:31;;;;;;;10.38;1.33;;;;;;;18.72;50.59;101133.56;5088453;28;20032;-71
2022/11/01 07:25:57;;;;;;;9.63;2.03;;;;;;;18.35;51.07;101133.78;5090536;28;20032;-72
2022/11/01 07:28:22;;;;;;;13.15;2.72;;;;;;;18.88;49.12;101135.19;5090013;28;20050;-72
2022/11/01 07:30:49;;;;;;;11.43;1.75;;;;;;;18.79;49.25;101138.75;5090081;28;20090;-72
2022/11/01 07:33:14;;;;;;;8.93;1.77;;;;;;;18.72;49.71;101149.91;5085928;28;20069;-72
2022/11/01 07:35:39;;;;;;;10.88;1.58;;;;;;;18.87;48.57;101157.28;5084633;28;20020;-70
2022/11/01 07:38:05;;;;;;;11.25;1.77;;;;;;;18.93;48.09;101164.31;5083134;28;20032;-70
2022/11/01 07:40:31;;;;;;;12.18;2.40;;;;;;;18.51;49.37;101170.03;5082864;28;20518;-70
2022/11/01 07:42:59;;;;;;;13.95;1.95;;;;;;;18.84;47.77;101164.06;5079856;28;20395;-72
2022/11/01 07:45:28;;;;;;;7.20;1.48;;;;;;;18.76;47.92;101163.78;5082568;28;20396;-73
2022/11/01 07:48:01;;;;;;;12.55;2.10;;;;;;;18.37;48.06;101179.75;5082728;28;20128;-69
2022/11/01 07:50:32;;;;;;;24.75;2.78;;;;;;;18.68;47.97;101186.91;5084305;28;20034;-71
2022/11/01 07:53:06;;;;;;;11.10;2.33;;;;;;;18.74;47.54;101180.41;5081334;28;20038;-71
2022/11/01 07:55:32;;;;;;;16.83;1.83;;;;;;;19.71;45.14;101180.06;5081495;28;20396;-72
2022/11/01 07:57:58;;;;;;;14.43;2.00;;;;;;;19.26;46.16;101180.94;5082705;28;20039;-70
2022/11/01 08:00:23;;;;;;;18.60;2.42;;;;;;;18.98;46.25;101175.22;5081212;28;20056;-71
2022/11/01 08:02:49;;;;;;;19.27;2.97;;;;;;;19.32;46.06;101183.66;5082105;28;20552;-71
2022/11/01 08:05:15;;;;;;;17.75;2.22;;;;;;;18.82;46.92;101198.91;5081418;28;20098;-69
2022/11/01 08:07:41;;;;;;;10.40;2.35;;;;;;;19.65;45.42;101188.53;5080676;28;20115;-70
2022/11/01 08:10:09;;;;;;;8.38;2.40;;;;;;;19.77;45.13;101189.06;5082178;28;20038;-70
2022/11/01 08:12:34;;;;;;;18.42;2.60;;;;;;;19.40;45.62;101205.75;5082744;28;20113;-71
2022/11/01 08:15:01;;;;;;;9.93;2.17;;;;;;;19.94;45.17;101201.28;5080406;28;20066;-71
2022/11/01 08:17:29;;;;;;;17.63;2.70;;;;;;;18.72;47.08;101201.63;5081730;28;20020;-69
2022/11/01 08:19:55;;;;;;;13.57;2.45;;;;;;;18.90;46.54;101200.28;5083067;28;20043;-71
2022/11/01 08:22:21;;;;;;;20.17;4.15;;;;;;;19.32;46.04;101198.09;5078975;28;20040;-72
2022/11/01 08:24:46;;;;;;;17.88;3.10;;;;;;;19.05;46.31;101235.69;5081438;28;20036;-70
2022/11/01 08:27:12;;;;;;;16.67;2.42;;;;;;;19.21;46.46;101231.91;5081759;28;20048;-70
2022/11/01 08:29:38;;;;;;;17.92;2.15;;;;;;;18.95;47.36;101201.09;5080036;28;20036;-72
2022/11/01 08:32:03;;;;;;;10.82;2.45;;;;;;;18.98;47.05;101213.38;5082895;28;20062;-69
2022/11/01 08:34:29;;;;;;;17.80;2.42;;;;;;;19.53;46.10;101254.28;5081459;28;20029;-71
2022/11/01 08:36:55;;;;;;;16.23;2.38;;;;;;;18.93;46.77;101214.16;5080581;28;20412;-70
2022/11/01 08:39:21;;;;;;;18.80;3.05;;;;;;;19.04;47.40;101231.34;5080159;28;20458;-69
2022/11/01 08:41:48;;;;;;;16.92;3.20;;;;;;;19.17;46.89;101233.53;5081328;28;20028;-71
2022/11/01 08:44:14;;;;;;;16.23;2.47;;;;;;;19.30;46.47;101246.63;5082319;28;20468;-70
2022/11/01 08:46:41;;;;;;;16.88;2.72;;;;;;;19.42;46.65;101239.00;5079694;28;20181;-71
2022/11/01 08:49:08;;;;;;;17.20;2.03;;;;;;;19.35;47.07;101248.53;5082776;28;20036;-71
2022/11/01 08:51:34;;;;;;;17.80;2.95;;;;;;;19.12;47.58;101241.72;5081999;28;20028;-72
2022/11/01 08:53:59;;;;;;;20.25;3.08;;;;;;;19.34;46.93;101246.94;5088217;28;20339;-71
2022/11/01 08:56:26;;;;;;;15.68;2.63;;;;;;;19.78;46.51;101273.31;5079910;28;20388;-70
2022/11/01 08:58:52;;;;;;;25.80;4.38;;;;;;;19.37;47.01;101270.91;5079890;28;20098;-70
2022/11/01 09:01:18;;;;;;;15.13;2.22;;;;;;;20.22;45.62;101256.31;5084550;28;20035;-70
2022/11/01 09:03:43;;;;;;;16.13;3.35;;;;;;;19.81;46.51;101248.22;5092161;28;20422;-71
2022/11/01 09:06:09;;;;;;;23.67;2.13;;;;;;;19.71;46.49;101242.81;5082343;28;20032;-71
2022/11/01 09:08:34;;;;;;;14.57;2.50;;;;;;;19.83;46.73;101250.69;5071721;28;20059;-71
2022/11/01 09:11:00;;;;;;;16.45;3.40;;;;;;;19.41;48.02;101261.91;5072198;28;20028;-71
2022/11/01 09:13:25;;;;;;;18.23;2.83;;;;;;;20.04;46.43;101250.34;5071633;28;20029;-71
2022/11/01 09:15:51;;;;;;;9.95;2.08;;;;;;;19.09;48.97;101253.97;5071684;28;20036;-70
2022/11/01 09:18:16;;;;;;;10.43;1.77;;;;;;;19.69;47.58;101271.44;5071456;28;20177;-71
2022/11/01 09:20:42;;;;;;;18.80;3.88;;;;;;;20.21;46.34;101269.13;5076806;28;20023;-72
2022/11/01 09:23:07;;;;;;;15.65;4.13;;;;;;;19.54;47.93;101266.78;5092105;28;20012;-71
2022/11/01 09:25:33;;;;;;;15.77;2.22;;;;;;;19.36;48.91;101286.41;5091221;28;20071;-69
2022/11/01 09:27:58;;;;;;;11.05;2.70;;;;;;;20.01;46.99;101280.06;5091660;28;20035;-71
2022/11/01 09:30:24;;;;;;;16.90;2.70;;;;;;;19.79;46.94;101295.97;5091613;28;20499;-71
2022/11/01 09:32:50;;;;;;;16.52;2.65;;;;;;;20.24;46.63;101287.69;5091457;28;20031;-72
2022/11/01 09:35:16;;;;;;;17.90;3.53;;;;;;;19.33;48.56;101297.88;5092150;28;20392;-72
2022/11/01 09:37:42;;;;;;;15.13;2.72;;;;;;;19.87;47.77;101301.66;5091411;28;20036;-71
2022/11/01 09:40:09;;;;;;;20.25;2.17;;;;;;;20.46;46.28;101304.53;5091657;28;20039;-70
2022/11/01 09:42:41;;;;;;;13.48;2.72;;;;;;;20.53;45.96;101317.88;5090697;28;20058;-70
2022/11/01 09:45:17;;;;;;;17.65;2.03;;;;;;;19.57;47.57;101326.25;5069539;28;20040;-68
2022/11/01 09:47:47;;;;;;;21.65;2.97;;;;;;;19.37;48.34;101318.06;5071331;28;20353;-70
2022/11/01 09:50:13;;;;;;;15.00;3.77;;;;;;;19.95;46.66;101331.09;5079876;28;20261;-70
2022/11/01 09:52:39;;;;;;;15.38;2.35;;;;;;;19.48;48.16;101319.69;5091069;28;20040;-72
2022/11/01 09:55:13;;;;;;;11.43;2.13;;;;;;;19.86;47.61;101323.75;5091056;28;20032;-71
2022/11/01 09:58:02;;;;;;;21.67;2.75;;;;;;;19.37;47.93;101334.41;5090221;28;20089;-70
2022/11/01 10:00:34;;;;;;;14.25;3.00;;;;;;;19.97;46.84;101326.19;5091191;28;20032;-73
2022/11/01 10:03:18;;;;;;;13.10;2.58;;;;;;;20.43;46.61;101334.31;5090720;28;20024;-72
2022/11/01 10:06:11;;;;;;;20.55;3.28;;;;;;;19.85;47.77;101349.41;5090543;28;20040;-71
2022/11/01 10:08:51;;;;;;;15.32;2.63;;;;;;;19.55;48.22;101358.41;5091010;28;20116;-72
2022/11/01 10:11:34;;;;;;;12.85;2.30;;;;;;;19.82;47.44;101348.03;5091339;28;20032;-70
2022/11/01 10:14:26;;;;;;;19.48;3.00;;;;;;;19.76;47.93;101337.41;5091369;28;20533;-72
2022/11/01 10:17:15;;;;;;;17.92;3.00;;;;;;;19.99;47.83;101337.66;5090744;28;20044;-69
2022/11/01 10:19:46;;;;;;;14.18;3.25;;;;;;;20.28;46.94;101351.56;5090846;28;20040;-71
2022/11/01 10:22:17;;;;;;;9.18;2.35;;;;;;;19.73;48.01;101349.69;5073101;28;20047;-69
2022/11/01 10:25:00;;;;;;;15.00;2.33;;;;;;;20.49;46.37;101347.66;5070722;28;20029;-71
2022/11/01 10:27:34;;;;;;;11.35;2.55;;;;;;;20.37;47.28;101354.53;5070337;28;20507;-71
2022/11/01 10:30:05;;;;;;;9.82;2.45;;;;;;;20.41;46.92;101355.59;5071019;28;20551;-70
2022/11/01 10:32:34;;;;;;;;;;;;;;;20.12;47.85;101350.75;5071273;28;20032;-70
2022/11/01 10:35:13;;;;;;;15.32;2.15;;;;;;;20.23;47.58;101367.94;5071192;28;19933;-70
2022/11/01 10:37:46;;;;;;;16.00;3.00;;;;;;;20.82;46.16;101363.38;5070452;28;20059;-71
2022/11/01 10:40:21;;;;;;;11.85;2.60;;;;;;;20.52;47.14;101370.88;5082193;28;20044;-69
2022/11/01 10:42:47;;;;;;;16.98;2.00;;;;;;;20.50;46.80;101392.97;5090581;28;20044;-71
2022/11/01 10:45:18;;;;;;;13.60;2.47;;;;;;;20.65;46.96;101387.50;5090487;28;20082;-68
2022/11/01 10:47:45;;;;;;;18.92;3.17;;;;;;;19.92;48.46;101382.69;5090903;28;20030;-71
2022/11/01 10:50:10;;;;;;;15.52;2.60;;;;;;;20.75;46.61;101387.44;5091053;28;20016;-73
2022/11/01 10:52:44;;;;;;;10.20;2.00;;;;;;;20.70;46.42;101406.56;5090357;28;20126;-69
2022/11/01 10:55:13;;;;;;;20.48;2.90;;;;;;;20.78;45.75;101375.13;5090637;28;20028;-71
2022/11/01 10:57:44;;;;;;;11.98;1.98;;;;;;;20.88;45.71;101397.78;5090067;28;20039;-71
2022/11/01 11:00:16;;;;;;;17.77;2.90;;;;;;;20.44;47.18;101385.88;5070287;28;20037;-71
2022/11/01 11:02:45;;;;;;;22.50;2.28;;;;;;;20.30;47.29;101386.75;5070463;28;20036;-71
2022/11/01 11:05:18;;;;;;;12.90;2.58;;;;;;;20.50;46.86;101392.19;5070809;28;20506;-70
2022/11/01 11:07:44;;;;;;;13.05;3.13;;;;;;;21.53;44.77;101401.25;5090299;28;20044;-72
2022/11/01 11:10:15;;;;;;;14.63;2.63;;;;;;;20.40;46.29;101403.13;5093944;28;20175;-69
2022/11/01 11:12:41;;;;;;;9.50;1.90;;;;;;;20.77;45.84;101378.97;5094421;28;20458;-68
2022/11/01 11:15:18;;;;;;;9.63;2.22;;;;;;;21.47;44.25;101388.72;5092635;28;20052;-70
2022/11/01 11:17:45;;;;;;;9.48;2.72;;;;;;;21.30;45.23;101396.50;5081078;28;20075;-72
2022/11/01 11:20:11;;;;;;;14.88;2.92;;;;;;;21.10;44.93;101391.13;5074538;28;20548;-75
2022/11/01 11:22:42;;;;;;;14.32;2.10;;;;;;;20.78;46.45;101377.84;5074072;28;20190;-74
2022/11/01 11:25:19;;;;;;;13.55;2.20;;;;;;;20.58;46.75;101380.69;5073616;28;20078;-71
2022/11/01 11:27:47;;;;;;;10.65;1.77;;;;;;;21.58;44.84;101377.41;5073666;28;20036;-70
2022/11/01 11:30:24;;;;;;;17.08;2.45;;;;;;;21.30;44.73;101382.81;5083904;28;20055;-72
2022/11/01 11:32:50;;;;;;;12.15;2.00;;;;;;;21.19;44.91;101376.59;5093896;28;20040;-70
2022/11/01 11:35:18;;;;;;;11.18;2.13;;;;;;;21.84;44.25;101375.31;5094512;28;20028;-70
2022/11/01 11:37:56;;;;;;;12.15;1.95;;;;;;;21.77;44.16;101383.84;5093648;28;20040;-71